KGLE/GLE METAR and TAF weather

Enter ICAO airport designator
Station Type Date Time Source
KGLE METAR 2019/10/15 03:35 UTC NOAA

KGLE 150335Z AUTO 17011KT 5SM BR OVC005 20/19 A2996 RMK AO2 T02020193


Station Type Date Time Source
KGLE Decoded METAR 2019/10/15 03:35 UTC NOAA

Gainesville, Gainesville Municipal Airport, TX, United States (KGLE) 33-39-05N 097-11-49W
Oct 14, 2019 - 11:35 PM EDT / 2019.10.15 0335 UTC
Wind: from the S (170 degrees) at 13 MPH (11 KT):0
Visibility: 5 mile(s):0
Sky conditions: overcast
Weather: mist
Temperature: 68.4 F (20.2 C)
Dew Point: 66.7 F (19.3 C)
Relative Humidity: 94%
Pressure (altimeter): 29.96 in. Hg (1014 hPa)
ob: KGLE 150335Z AUTO 17011KT 5SM BR OVC005 20/19 A2996 RMK AO2 T02020193
cycle: 3

Station Type Date Time Source
KGLE TAF UTC NOAA

Error!

Example: see airport list